createdAt,value
2023-02-17T00:01:30.377Z,37.23
2023-02-17T00:03:58.187Z,30.77
2023-02-17T00:06:28.731Z,31.70
2023-02-17T00:08:56.846Z,29.47
2023-02-17T00:11:24.291Z,30.43
2023-02-17T00:13:55.938Z,31.40
2023-02-17T00:16:26.133Z,35.47
2023-02-17T00:18:56.644Z,32.00
2023-02-17T00:21:26.585Z,31.97
2023-02-17T00:23:54.384Z,31.63
2023-02-17T00:26:22.324Z,30.60
2023-02-17T00:28:51.042Z,33.23
2023-02-17T00:31:20.894Z,34.40
2023-02-17T00:33:48.776Z,32.73
2023-02-17T00:36:18.637Z,33.33
2023-02-17T00:38:50.104Z,35.57
2023-02-17T00:41:18.537Z,32.37
2023-02-17T00:43:47.578Z,35.13
2023-02-17T00:46:17.403Z,36.67
2023-02-17T00:48:46.603Z,31.77
2023-02-17T00:51:16.058Z,33.33
2023-02-17T00:53:43.715Z,31.67
2023-02-17T00:56:11.918Z,31.67
2023-02-17T00:58:41.564Z,35.17
2023-02-17T01:01:10.547Z,32.03
2023-02-17T01:03:42.546Z,31.93
2023-02-17T01:06:15.151Z,35.53
2023-02-17T01:08:42.412Z,36.50
2023-02-17T01:11:18.208Z,29.03
2023-02-17T01:13:45.825Z,37.00
2023-02-17T01:16:23.153Z,34.07
2023-02-17T01:18:50.734Z,35.10
2023-02-17T01:21:26.183Z,35.67
2023-02-17T01:23:56.424Z,32.87
2023-02-17T01:26:26.468Z,32.97
2023-02-17T01:28:55.455Z,31.63
2023-02-17T01:31:24.049Z,36.00
2023-02-17T01:33:51.727Z,31.77
2023-02-17T01:36:20.704Z,30.67
2023-02-17T01:38:48.372Z,33.57
2023-02-17T01:41:20.385Z,32.80
2023-02-17T01:44:19.161Z,34.60
2023-02-17T01:46:49.392Z,34.53
2023-02-17T01:49:38.052Z,38.17
2023-02-17T01:52:21.145Z,34.80
2023-02-17T01:54:54.449Z,36.13
2023-02-17T01:57:26.562Z,40.50
2023-02-17T01:59:54.615Z,36.47
2023-02-17T02:02:22.748Z,41.20
2023-02-17T02:04:53.491Z,39.40
2023-02-17T02:07:28.536Z,40.43
2023-02-17T02:09:58.825Z,39.10
2023-02-17T02:12:36.287Z,41.03
2023-02-17T02:15:16.371Z,41.33
2023-02-17T02:18:03.084Z,43.90
2023-02-17T02:20:49.666Z,41.47
2023-02-17T02:23:47.913Z,41.60
2023-02-17T02:26:31.915Z,41.73
2023-02-17T02:29:27.220Z,42.00
2023-02-17T02:32:19.746Z,42.60
2023-02-17T02:34:55.216Z,46.67
2023-02-17T02:37:37.074Z,48.77
2023-02-17T02:40:08.827Z,50.97
2023-02-17T02:42:40.782Z,55.73
2023-02-17T02:45:10.699Z,62.67
2023-02-17T02:47:43.752Z,67.30
2023-02-17T02:50:22.221Z,59.10
2023-02-17T02:53:18.356Z,60.50
2023-02-17T02:55:58.339Z,60.40
2023-02-17T02:58:32.782Z,56.83
2023-02-17T03:01:07.856Z,55.73
2023-02-17T03:03:47.615Z,58.07
2023-02-17T03:06:30.454Z,50.63
2023-02-17T03:09:11.199Z,50.23
2023-02-17T03:11:39.791Z,50.63
2023-02-17T03:14:10.653Z,47.73
2023-02-17T03:16:41.417Z,53.00
2023-02-17T03:19:10.585Z,51.07
2023-02-17T03:21:49.921Z,49.73
2023-02-17T03:24:17.615Z,53.47
2023-02-17T03:26:44.896Z,52.97
2023-02-17T03:29:12.172Z,52.20
2023-02-17T03:31:40.681Z,50.77
2023-02-17T03:34:08.321Z,49.97
2023-02-17T03:36:36.996Z,46.80
2023-02-17T03:39:04.276Z,50.30
2023-02-17T03:41:31.448Z,47.33
2023-02-17T03:43:59.027Z,48.63
2023-02-17T03:46:26.234Z,47.70
2023-02-17T03:48:53.437Z,41.67
2023-02-17T03:51:23.444Z,43.70
2023-02-17T03:53:51.492Z,47.30
2023-02-17T03:56:19.933Z,46.00
2023-02-17T03:58:47.356Z,40.33
2023-02-17T04:01:15.364Z,48.23
2023-02-17T04:03:43.293Z,46.63
2023-02-17T04:06:11.696Z,45.53
2023-02-17T04:08:40.382Z,44.43
2023-02-17T04:11:10.502Z,52.03
2023-02-17T04:13:38.710Z,51.03
2023-02-17T04:16:08.702Z,50.17
2023-02-17T04:18:37.311Z,50.27
2023-02-17T04:21:05.673Z,51.10
2023-02-17T04:23:34.331Z,48.33
2023-02-17T04:26:01.571Z,54.00
2023-02-17T04:28:28.817Z,57.87
2023-02-17T04:30:59.969Z,58.43
2023-02-17T04:33:27.508Z,53.17
2023-02-17T04:36:05.303Z,58.33
2023-02-17T04:38:33.992Z,57.70
2023-02-17T04:41:02.492Z,57.97
2023-02-17T04:43:29.960Z,56.17
2023-02-17T04:45:58.001Z,54.13
2023-02-17T04:48:26.573Z,57.63
2023-02-17T04:50:53.793Z,66.70
2023-02-17T04:53:21.060Z,71.07
2023-02-17T04:55:52.733Z,67.93
2023-02-17T04:58:20.963Z,66.60
2023-02-17T05:00:49.499Z,102.83
2023-02-17T05:03:18.087Z,82.07
2023-02-17T05:05:45.306Z,71.23
2023-02-17T05:08:12.672Z,60.93
2023-02-17T05:10:39.989Z,60.63
2023-02-17T05:13:07.310Z,58.30
2023-02-17T05:15:35.129Z,59.93
2023-02-17T05:18:03.111Z,56.90
2023-02-17T05:20:30.567Z,54.60
2023-02-17T05:22:57.833Z,55.93
2023-02-17T05:25:24.942Z,54.10
2023-02-17T05:27:52.214Z,55.87
2023-02-17T05:30:19.542Z,56.57
2023-02-17T05:32:46.819Z,57.93
2023-02-17T05:35:13.951Z,64.13
2023-02-17T05:37:41.508Z,60.27
2023-02-17T05:40:09.419Z,56.37
2023-02-17T05:42:36.642Z,56.03
2023-02-17T05:45:05.018Z,57.23
2023-02-17T05:47:32.359Z,56.23
2023-02-17T05:49:59.604Z,57.90
2023-02-17T05:52:28.880Z,57.13
2023-02-17T05:54:55.953Z,57.53
2023-02-17T05:57:23.463Z,51.33
2023-02-17T05:59:50.732Z,53.63
2023-02-17T06:02:17.948Z,54.03
2023-02-17T06:04:45.374Z,57.07
2023-02-17T06:07:12.943Z,58.13
2023-02-17T06:09:40.134Z,53.37
2023-02-17T06:12:07.407Z,54.20
2023-02-17T06:14:34.591Z,52.53
2023-02-17T06:17:04.282Z,53.70
2023-02-17T06:19:31.422Z,54.33
2023-02-17T06:21:58.578Z,58.33
2023-02-17T06:24:25.838Z,61.63
2023-02-17T06:26:52.993Z,98.53
2023-02-17T06:29:20.199Z,105.77
2023-02-17T06:31:47.625Z,74.80
2023-02-17T06:34:15.059Z,71.07
2023-02-17T06:36:42.292Z,83.50
2023-02-17T06:39:09.537Z,85.83
2023-02-17T06:41:36.792Z,77.30
2023-02-17T06:44:04.728Z,76.80
2023-02-17T06:46:32.215Z,71.97
2023-02-17T06:49:00.472Z,67.93
2023-02-17T06:51:29.031Z,67.90
2023-02-17T06:53:56.472Z,66.53
2023-02-17T06:56:23.833Z,70.50
2023-02-17T06:58:52.010Z,69.83
2023-02-17T07:01:22.697Z,61.77
2023-02-17T07:03:50.164Z,66.90
2023-02-17T07:06:17.213Z,58.47
2023-02-17T07:08:45.038Z,64.97
2023-02-17T07:11:14.685Z,58.70
2023-02-17T07:13:42.853Z,57.57
2023-02-17T07:16:12.936Z,56.20
2023-02-17T07:18:40.423Z,51.63
2023-02-17T07:21:09.245Z,54.67
2023-02-17T07:23:37.433Z,53.37
2023-02-17T07:26:08.708Z,58.87
2023-02-17T07:28:37.836Z,61.70
2023-02-17T07:31:14.053Z,55.33
2023-02-17T07:33:42.475Z,56.73
2023-02-17T07:36:15.132Z,55.93
2023-02-17T07:38:42.890Z,52.10
2023-02-17T07:41:13.810Z,49.43
2023-02-17T07:43:41.632Z,52.50
2023-02-17T07:46:10.771Z,44.23
2023-02-17T07:48:39.141Z,43.87
2023-02-17T07:51:07.438Z,42.13
2023-02-17T07:53:35.787Z,44.97
2023-02-17T07:56:05.129Z,42.00
2023-02-17T07:58:37.879Z,43.23
2023-02-17T08:01:18.393Z,46.87
2023-02-17T08:03:46.248Z,42.27
2023-02-17T08:06:16.391Z,24.87
2023-02-17T08:09:02.586Z,18.40
2023-02-17T08:11:53.504Z,17.67
2023-02-17T08:14:22.505Z,12.87
2023-02-17T08:16:49.724Z,10.77
2023-02-17T08:19:17.147Z,12.23
2023-02-17T08:21:44.396Z,13.20
2023-02-17T08:24:12.453Z,11.13
2023-02-17T08:26:40.399Z,9.00
2023-02-17T08:29:07.901Z,11.73
2023-02-17T08:31:36.565Z,12.37
2023-02-17T08:34:06.891Z,13.37
2023-02-17T08:36:37.608Z,14.63
2023-02-17T08:39:12.580Z,12.97
2023-02-17T08:41:41.206Z,9.70
2023-02-17T08:44:15.398Z,11.27
2023-02-17T08:46:44.680Z,11.67
2023-02-17T08:49:12.027Z,9.83
2023-02-17T08:51:39.309Z,10.10
2023-02-17T08:54:08.068Z,13.57
2023-02-17T08:56:36.372Z,10.40
2023-02-17T08:59:04.642Z,10.27
2023-02-17T09:01:32.475Z,8.90
2023-02-17T09:04:01.500Z,11.27
2023-02-17T09:06:45.772Z,10.87
2023-02-17T09:09:15.230Z,12.90
2023-02-17T09:11:43.051Z,12.63
2023-02-17T09:14:10.433Z,9.50
2023-02-17T09:16:41.385Z,10.40
2023-02-17T09:19:08.929Z,11.20
2023-02-17T09:21:36.130Z,14.80
2023-02-17T09:24:03.465Z,13.47
2023-02-17T09:26:30.718Z,11.53
2023-02-17T09:28:58.211Z,10.87
2023-02-17T09:31:27.400Z,13.20
2023-02-17T09:33:55.488Z,13.57
2023-02-17T09:36:25.640Z,13.20
2023-02-17T09:38:52.985Z,14.37
2023-02-17T09:41:43.667Z,12.60
2023-02-17T09:44:45.213Z,11.77
2023-02-17T09:47:25.676Z,12.93
2023-02-17T09:50:03.361Z,13.73
2023-02-17T09:53:32.043Z,16.53
2023-02-17T09:56:03.934Z,16.27
2023-02-17T09:58:40.802Z,12.53
2023-02-17T10:01:16.656Z,10.27
2023-02-17T10:03:54.583Z,11.60
2023-02-17T10:06:26.549Z,15.03
2023-02-17T10:09:11.919Z,13.97
2023-02-17T10:11:47.227Z,10.07
2023-02-17T10:14:33.427Z,15.20
2023-02-17T10:17:24.270Z,10.67
2023-02-17T10:20:03.060Z,10.30
2023-02-17T10:22:33.146Z,13.57
2023-02-17T10:25:02.941Z,11.77
2023-02-17T10:27:41.606Z,9.77
2023-02-17T10:30:32.346Z,10.73
2023-02-17T10:33:12.106Z,11.50
2023-02-17T10:35:50.354Z,12.10
2023-02-17T10:38:43.527Z,10.90
2023-02-17T10:41:14.887Z,11.50
2023-02-17T10:43:44.324Z,10.23
2023-02-17T10:46:15.841Z,9.80
2023-02-17T10:48:54.965Z,10.63
2023-02-17T10:51:31.237Z,10.90
2023-02-17T10:54:16.188Z,9.07
2023-02-17T10:56:51.318Z,10.80
2023-02-17T10:59:21.221Z,9.77
2023-02-17T11:01:49.170Z,14.30
2023-02-17T11:04:16.403Z,8.47
2023-02-17T11:06:55.050Z,11.80
2023-02-17T11:09:33.092Z,9.37
2023-02-17T11:12:11.322Z,8.13
2023-02-17T11:14:47.530Z,8.70
2023-02-17T11:17:41.567Z,8.13
2023-02-17T11:20:30.825Z,10.47
2023-02-17T11:23:24.609Z,12.20
2023-02-17T11:26:00.131Z,11.33
2023-02-17T11:28:28.213Z,9.87
2023-02-17T11:31:00.136Z,7.00
2023-02-17T11:33:32.676Z,10.77
2023-02-17T11:36:01.780Z,9.23
2023-02-17T11:38:45.402Z,8.57
2023-02-17T11:41:12.965Z,7.50
2023-02-17T11:43:51.207Z,10.27
2023-02-17T11:46:33.508Z,6.47
2023-02-17T11:49:30.857Z,10.80
2023-02-17T11:52:16.901Z,9.50
2023-02-17T11:54:49.851Z,13.30
2023-02-17T11:57:31.764Z,6.97
2023-02-17T12:00:14.160Z,9.00
2023-02-17T12:03:03.708Z,13.90
2023-02-17T12:05:52.684Z,6.70
2023-02-17T12:09:00.359Z,7.70
2023-02-17T12:11:51.243Z,7.57
2023-02-17T12:14:26.056Z,7.57
2023-02-17T12:17:14.227Z,9.37
2023-02-17T12:20:02.743Z,8.07
2023-02-17T12:22:50.187Z,7.47
2023-02-17T12:25:23.970Z,7.40
2023-02-17T12:28:30.206Z,6.57
2023-02-17T12:31:32.393Z,4.67
2023-02-17T12:34:05.494Z,5.97
2023-02-17T12:36:36.860Z,8.13
2023-02-17T12:39:17.482Z,3.53
2023-02-17T12:42:10.090Z,5.60
2023-02-17T12:45:10.832Z,6.97
2023-02-17T12:48:05.787Z,6.57
2023-02-17T12:50:35.917Z,8.60
2023-02-17T12:53:08.177Z,4.23
2023-02-17T12:55:48.625Z,8.07
2023-02-17T12:58:23.433Z,4.60
2023-02-17T13:01:17.124Z,6.57
2023-02-17T13:03:44.472Z,5.13
2023-02-17T13:06:21.627Z,5.60
2023-02-17T13:08:59.282Z,6.57
2023-02-17T13:11:34.671Z,6.70
2023-02-17T13:14:27.933Z,5.93
2023-02-17T13:16:55.699Z,7.10
2023-02-17T13:19:35.158Z,8.03
2023-02-17T13:22:04.138Z,6.13
2023-02-17T13:24:40.113Z,6.87
2023-02-17T13:27:22.605Z,5.27
2023-02-17T13:30:03.627Z,5.63
2023-02-17T13:32:35.060Z,6.83
2023-02-17T13:35:27.329Z,10.53
2023-02-17T13:37:55.406Z,7.17
2023-02-17T13:40:23.271Z,5.73
2023-02-17T13:42:59.612Z,6.17
2023-02-17T13:45:42.554Z,8.10
2023-02-17T13:48:21.266Z,5.07
2023-02-17T13:51:00.725Z,5.20
2023-02-17T13:53:37.804Z,7.33
2023-02-17T13:56:24.104Z,6.13
2023-02-17T13:58:52.338Z,6.90
2023-02-17T14:01:27.459Z,8.10
2023-02-17T14:03:56.566Z,7.83
2023-02-17T14:06:42.194Z,6.63
2023-02-17T14:09:31.044Z,6.77
2023-02-17T14:12:01.194Z,7.00
2023-02-17T14:14:37.370Z,8.67
2023-02-17T14:17:09.419Z,6.17
2023-02-17T14:19:48.242Z,7.40
2023-02-17T14:22:35.007Z,6.97
2023-02-17T14:25:06.290Z,4.77
2023-02-17T14:27:47.965Z,9.57
2023-02-17T14:30:16.726Z,6.57
2023-02-17T14:32:44.599Z,9.70
2023-02-17T14:35:15.482Z,8.40
2023-02-17T14:37:43.412Z,7.43
2023-02-17T14:40:21.485Z,6.60
2023-02-17T14:42:50.908Z,4.60
2023-02-17T14:45:19.649Z,4.37
2023-02-17T14:47:47.335Z,6.53
2023-02-17T14:50:17.551Z,6.57
2023-02-17T14:52:50.037Z,5.97
2023-02-17T14:55:41.366Z,4.57
2023-02-17T14:58:18.746Z,5.47
2023-02-17T15:00:46.515Z,9.13
2023-02-17T15:03:13.738Z,6.03
2023-02-17T15:05:41.418Z,6.27
2023-02-17T15:08:16.201Z,4.23
2023-02-17T15:10:43.986Z,5.87
2023-02-17T15:13:16.399Z,3.97
2023-02-17T15:15:45.196Z,9.10
2023-02-17T15:18:13.634Z,4.57
2023-02-17T15:20:43.632Z,7.43
2023-02-17T15:23:14.667Z,4.37
2023-02-17T15:25:43.149Z,5.27
2023-02-17T15:28:17.736Z,4.90
2023-02-17T15:30:54.647Z,4.63
2023-02-17T15:33:23.857Z,9.33
2023-02-17T15:35:56.206Z,5.83
2023-02-17T15:38:24.431Z,4.47
2023-02-17T15:40:51.703Z,7.53
2023-02-17T15:43:22.947Z,5.73
2023-02-17T15:45:50.311Z,4.33
2023-02-17T15:48:24.496Z,4.33
2023-02-17T15:50:52.596Z,6.30
2023-02-17T15:53:20.556Z,7.83
2023-02-17T15:55:48.485Z,5.13
2023-02-17T15:58:22.181Z,4.93
2023-02-17T16:00:51.543Z,6.63
2023-02-17T16:03:18.911Z,7.77
2023-02-17T16:05:46.407Z,5.33
2023-02-17T16:08:13.613Z,5.77
2023-02-17T16:10:42.670Z,5.97
2023-02-17T16:13:14.788Z,4.10
2023-02-17T16:15:43.016Z,9.10
2023-02-17T16:18:31.583Z,3.37
2023-02-17T16:20:58.789Z,4.20
2023-02-17T16:23:26.081Z,4.10
2023-02-17T16:25:53.549Z,4.87
2023-02-17T16:28:22.182Z,3.73
2023-02-17T16:30:51.106Z,5.93
2023-02-17T16:33:19.085Z,5.23
2023-02-17T16:35:47.169Z,4.73
2023-02-17T16:38:17.661Z,4.10
2023-02-17T16:40:48.463Z,4.43
2023-02-17T16:43:18.018Z,2.97
2023-02-17T16:45:52.422Z,5.80
2023-02-17T16:48:20.631Z,11.33
2023-02-17T16:50:47.795Z,8.20
2023-02-17T16:53:15.459Z,8.50
2023-02-17T16:55:42.808Z,9.10
2023-02-17T16:58:19.703Z,9.47
2023-02-17T17:00:49.491Z,4.63
2023-02-17T17:03:16.739Z,4.47
2023-02-17T17:05:44.244Z,4.43
2023-02-17T17:08:16.112Z,4.10
2023-02-17T17:10:46.896Z,4.17
2023-02-17T17:13:14.289Z,5.03
2023-02-17T17:15:44.759Z,4.80
2023-02-17T17:18:20.442Z,4.23
2023-02-17T17:20:47.910Z,4.37
2023-02-17T17:23:16.213Z,10.30
2023-02-17T17:25:46.841Z,5.47
2023-02-17T17:28:19.324Z,5.70
2023-02-17T17:30:46.813Z,4.87
2023-02-17T17:33:15.593Z,8.97
2023-02-17T17:35:43.664Z,5.47
2023-02-17T17:38:15.677Z,5.30
2023-02-17T17:40:53.525Z,5.07
2023-02-17T17:43:23.900Z,5.63
2023-02-17T17:45:52.676Z,5.47
2023-02-17T17:48:20.587Z,7.83
2023-02-17T17:50:49.983Z,6.43
2023-02-17T17:53:17.183Z,6.57
2023-02-17T17:55:44.405Z,4.03
2023-02-17T17:58:11.793Z,6.70
2023-02-17T18:00:39.177Z,6.17
2023-02-17T18:03:06.408Z,6.33
2023-02-17T18:05:33.617Z,8.13
2023-02-17T18:08:01.393Z,7.00
2023-02-17T18:10:28.689Z,4.70
2023-02-17T18:12:56.538Z,4.03
2023-02-17T18:15:23.912Z,4.20
2023-02-17T18:17:52.681Z,7.87
2023-02-17T18:20:19.980Z,5.50
2023-02-17T18:22:47.176Z,6.77
2023-02-17T18:25:14.461Z,7.63
2023-02-17T18:27:44.364Z,6.13
2023-02-17T18:30:14.742Z,5.53
2023-02-17T18:32:44.266Z,10.83
2023-02-17T18:35:12.763Z,4.27
2023-02-17T18:37:41.440Z,5.80
2023-02-17T18:40:13.439Z,6.03
2023-02-17T18:42:42.374Z,3.83
2023-02-17T18:45:10.292Z,6.53
2023-02-17T18:47:37.983Z,8.27
2023-02-17T18:50:07.478Z,6.03
2023-02-17T18:52:36.371Z,6.17
2023-02-17T18:55:04.557Z,6.03
2023-02-17T18:57:32.830Z,7.70
2023-02-17T19:00:00.178Z,7.80
2023-02-17T19:02:28.360Z,6.07
2023-02-17T19:04:56.368Z,6.13
2023-02-17T19:07:23.779Z,6.37
2023-02-17T19:09:54.672Z,7.13
2023-02-17T19:12:22.019Z,6.60
2023-02-17T19:14:53.379Z,6.63
2023-02-17T19:17:20.636Z,7.10
2023-02-17T19:19:48.373Z,5.60
2023-02-17T19:22:15.776Z,4.63
2023-02-17T19:24:43.320Z,6.50
2023-02-17T19:27:11.764Z,5.83
2023-02-17T19:29:40.526Z,5.30
2023-02-17T19:32:07.877Z,7.13
2023-02-17T19:34:36.102Z,5.87
2023-02-17T19:37:03.355Z,4.73
2023-02-17T19:39:31.698Z,4.30
2023-02-17T19:41:59.067Z,5.93
2023-02-17T19:44:26.328Z,3.57
2023-02-17T19:46:53.999Z,5.77
2023-02-17T19:49:25.196Z,5.57
2023-02-17T19:51:56.089Z,5.60
2023-02-17T19:54:24.687Z,5.33
2023-02-17T19:56:52.760Z,4.50
2023-02-17T19:59:20.028Z,4.53
2023-02-17T20:01:48.800Z,4.87
2023-02-17T20:04:16.561Z,5.90
2023-02-17T20:06:47.668Z,5.13
2023-02-17T20:09:19.094Z,5.70
2023-02-17T20:11:48.408Z,4.33
2023-02-17T20:14:16.430Z,4.20
2023-02-17T20:16:43.620Z,5.17
2023-02-17T20:19:10.821Z,4.40
2023-02-17T20:21:38.829Z,4.27
2023-02-17T20:24:07.013Z,4.30
2023-02-17T20:26:40.254Z,4.23
2023-02-17T20:29:08.185Z,5.23
2023-02-17T20:31:40.316Z,4.93
2023-02-17T20:34:17.901Z,6.10
2023-02-17T20:36:45.150Z,6.43
2023-02-17T20:39:13.158Z,4.60
2023-02-17T20:41:40.472Z,4.00
2023-02-17T20:44:07.824Z,4.90
2023-02-17T20:46:36.732Z,3.83
2023-02-17T20:49:04.320Z,4.13
2023-02-17T20:51:31.534Z,3.67
2023-02-17T20:53:59.671Z,3.97
2023-02-17T20:56:34.367Z,5.40
2023-02-17T20:59:02.678Z,3.23
2023-02-17T21:01:30.324Z,4.43
2023-02-17T21:03:58.041Z,4.17
2023-02-17T21:06:28.592Z,3.93
2023-02-17T21:08:58.854Z,3.27
2023-02-17T21:11:26.876Z,2.07
2023-02-17T21:13:54.529Z,3.30
2023-02-17T21:16:28.688Z,2.97
2023-02-17T21:18:56.088Z,4.03
2023-02-17T21:21:23.392Z,3.20
2023-02-17T21:23:51.775Z,6.10
2023-02-17T21:26:19.058Z,2.93
2023-02-17T21:28:47.481Z,4.70
2023-02-17T21:31:16.087Z,4.20
2023-02-17T21:33:44.028Z,3.23
2023-02-17T21:36:15.519Z,3.10
2023-02-17T21:38:43.375Z,3.90
2023-02-17T21:41:16.863Z,5.47
2023-02-17T21:44:03.640Z,3.07
2023-02-17T21:46:31.738Z,2.70
2023-02-17T21:49:00.566Z,3.20
2023-02-17T21:51:28.371Z,4.17
2023-02-17T21:53:55.976Z,3.63
2023-02-17T21:56:23.645Z,2.43
2023-02-17T21:58:53.042Z,3.43
2023-02-17T22:01:21.592Z,3.37
2023-02-17T22:03:48.983Z,2.00
2023-02-17T22:06:17.696Z,3.63
2023-02-17T22:08:45.606Z,2.23
2023-02-17T22:11:18.459Z,1.90
2023-02-17T22:13:45.961Z,2.10
2023-02-17T22:16:13.659Z,1.93
2023-02-17T22:18:41.587Z,2.20
2023-02-17T22:21:14.071Z,2.40
2023-02-17T22:23:42.357Z,1.50
2023-02-17T22:26:15.389Z,2.40
2023-02-17T22:28:42.700Z,2.80
2023-02-17T22:31:13.876Z,1.70
2023-02-17T22:33:41.386Z,1.73
2023-02-17T22:36:11.590Z,1.87
2023-02-17T22:38:39.857Z,2.03
2023-02-17T22:41:10.896Z,2.20
2023-02-17T22:43:40.071Z,1.47
2023-02-17T22:46:09.748Z,1.33
2023-02-17T22:48:39.065Z,1.77
2023-02-17T22:51:08.550Z,1.30
2023-02-17T22:53:36.741Z,1.33
2023-02-17T22:56:05.897Z,3.30
2023-02-17T22:58:34.957Z,2.50
2023-02-17T23:01:11.457Z,4.10
2023-02-17T23:03:39.470Z,2.70
2023-02-17T23:06:13.893Z,1.80
2023-02-17T23:08:43.274Z,1.77
2023-02-17T23:11:13.363Z,1.40
2023-02-17T23:13:41.221Z,1.80
2023-02-17T23:16:09.362Z,1.53
2023-02-17T23:18:37.692Z,4.83
2023-02-17T23:21:12.838Z,1.50
2023-02-17T23:23:40.157Z,1.97
2023-02-17T23:26:07.685Z,1.87
2023-02-17T23:28:35.351Z,1.33
2023-02-17T23:31:02.687Z,3.10
2023-02-17T23:33:30.315Z,1.10
2023-02-17T23:35:57.475Z,2.90
2023-02-17T23:38:24.796Z,1.43
2023-02-17T23:40:53.235Z,1.40
2023-02-17T23:43:21.933Z,2.20
2023-02-17T23:45:50.134Z,2.00
2023-02-17T23:48:17.508Z,1.33
2023-02-17T23:50:44.721Z,1.43
2023-02-17T23:53:11.970Z,1.10
2023-02-17T23:55:39.300Z,2.07
2023-02-17T23:58:06.521Z,1.87
